Time;durP1;ratioP1;P1;durP2;ratioP2;P2;SDS_P1;SDS_P2;PMS_P1;PMS_P2;Temp;Humidity;BMP_temperature;BMP_pressure;BME280_temperature;BME280_humidity;BME280_pressure;Samples;Min_cycle;Max_cycle;Signal;HPM_P1;HPM_P2
2022/09/27 00:00:15;;;;;;;0.28;0.28;;;;;;;;;;4162087;28;20076;-42
2022/09/27 00:02:17;;;;;;;0.32;0.32;;;;;;;;;;4162483;28;20486;-42
2022/09/27 00:04:18;;;;;;;0.30;0.30;;;;;;;;;;4160445;28;20078;-42
2022/09/27 00:06:26;;;;;;;0.50;0.40;;;;;;;;;;4148111;28;20060;-41
2022/09/27 00:08:27;;;;;;;0.30;0.30;;;;;;;;;;4134037;28;20085;-42
2022/09/27 00:10:28;;;;;;;0.52;0.40;;;;;;;;;;4162170;28;20060;-42
2022/09/27 00:12:29;;;;;;;0.38;0.22;;;;;;;;;;4162516;28;20622;-41
2022/09/27 00:14:30;;;;;;;0.38;0.38;;;;;;;;;;4162627;28;20058;-41
2022/09/27 00:16:34;;;;;;;0.63;0.30;;;;;;;;;;4144803;28;20583;-41
2022/09/27 00:18:35;;;;;;;0.55;0.45;;;;;;;;;;4162026;28;20065;-41
2022/09/27 00:20:37;;;;;;;0.50;0.50;;;;;;;;;;4162113;28;20451;-42
2022/09/27 00:22:38;;;;;;;0.30;0.30;;;;;;;;;;4162594;28;20053;-42
2022/09/27 00:24:39;;;;;;;0.50;0.43;;;;;;;;;;4161893;28;20386;-41
2022/09/27 00:26:40;;;;;;;1.67;0.30;;;;;;;;;;4161138;28;20061;-43
2022/09/27 00:28:41;;;;;;;0.43;0.38;;;;;;;;;;4160880;28;20107;-42
2022/09/27 00:30:43;;;;;;;0.50;0.45;;;;;;;;;;4161103;28;20061;-41
2022/09/27 00:32:44;;;;;;;0.30;0.30;;;;;;;;;;4161740;28;20062;-42
2022/09/27 00:34:46;;;;;;;0.30;0.30;;;;;;;;;;4160440;28;20053;-41
2022/09/27 00:36:47;;;;;;;0.47;0.30;;;;;;;;;;4162112;28;20061;-42
2022/09/27 00:38:49;;;;;;;0.30;0.30;;;;;;;;;;4161996;28;20065;-42
2022/09/27 00:40:50;;;;;;;0.20;0.20;;;;;;;;;;4161957;28;20512;-42
2022/09/27 00:42:51;;;;;;;0.30;0.30;;;;;;;;;;4162070;28;20050;-42
2022/09/27 00:45:02;;;;;;;0.40;0.40;;;;;;;;;;4160301;28;20115;-42
2022/09/27 00:47:32;;;;;;;0.20;0.20;;;;;;;;;;4161956;28;20087;-41
2022/09/27 00:49:40;;;;;;;0.35;0.32;;;;;;;;;;4161720;28;20053;-41
2022/09/27 00:51:42;;;;;;;0.60;0.40;;;;;;;;;;4146203;28;20109;-42
2022/09/27 00:53:53;;;;;;;0.35;0.35;;;;;;;;;;4145511;28;20060;-41
2022/09/27 00:56:01;;;;;;;0.38;0.32;;;;;;;;;;4145600;28;20054;-42
2022/09/27 00:58:03;;;;;;;0.30;0.30;;;;;;;;;;4162544;28;20555;-41
2022/09/27 01:00:09;;;;;;;0.28;0.28;;;;;;;;;;4162058;28;20279;-42
2022/09/27 01:02:11;;;;;;;0.65;0.30;;;;;;;;;;4158831;28;20107;-42
2022/09/27 01:04:17;;;;;;;0.30;0.30;;;;;;;;;;4161690;28;20402;-41
2022/09/27 01:06:19;;;;;;;0.45;0.32;;;;;;;;;;4162594;28;20183;-42
2022/09/27 01:08:21;;;;;;;0.52;0.30;;;;;;;;;;4162392;28;20057;-42
2022/09/27 01:10:24;;;;;;;0.30;0.30;;;;;;;;;;4163505;28;20054;-44
2022/09/27 01:12:38;;;;;;;0.32;0.28;;;;;;;;;;4165201;28;20072;-41
2022/09/27 01:14:48;;;;;;;1.00;0.40;;;;;;;;;;4165589;28;20448;-42
2022/09/27 01:16:55;;;;;;;0.35;0.30;;;;;;;;;;4167010;28;20099;-42
2022/09/27 01:19:11;;;;;;;0.45;0.30;;;;;;;;;;4166481;28;20053;-41
2022/09/27 01:21:28;;;;;;;0.57;0.30;;;;;;;;;;4166913;28;20054;-42
2022/09/27 01:23:50;;;;;;;1.08;0.30;;;;;;;;;;4149001;28;20056;-41
2022/09/27 01:25:54;;;;;;;0.40;0.30;;;;;;;;;;4165882;28;20056;-41
2022/09/27 01:28:11;;;;;;;0.32;0.30;;;;;;;;;;4165290;28;20390;-42
2022/09/27 01:30:42;;;;;;;0.22;0.20;;;;;;;;;;4165255;28;20057;-42
2022/09/27 01:32:51;;;;;;;0.30;0.30;;;;;;;;;;4165495;28;20057;-41
2022/09/27 01:34:52;;;;;;;0.35;0.35;;;;;;;;;;4164886;28;20481;-41
2022/09/27 01:37:12;;;;;;;0.38;0.32;;;;;;;;;;4165257;28;20053;-41
2022/09/27 01:39:39;;;;;;;0.35;0.35;;;;;;;;;;4165202;28;20057;-41
2022/09/27 01:42:27;;;;;;;0.93;0.50;;;;;;;;;;4148074;28;20120;-41
2022/09/27 01:44:53;;;;;;;0.40;0.30;;;;;;;;;;4143103;28;20054;-41
2022/09/27 01:47:03;;;;;;;0.40;0.22;;;;;;;;;;4148638;28;20057;-41
2022/09/27 01:49:33;;;;;;;0.43;0.30;;;;;;;;;;4134754;28;20498;-41
2022/09/27 01:51:51;;;;;;;;;;;;;;;;;;4159468;28;20057;-42
2022/09/27 01:53:56;;;;;;;0.40;0.30;;;;;;;;;;4165027;28;19921;-41
2022/09/27 01:56:02;;;;;;;0.40;0.40;;;;;;;;;;4164959;28;20516;-42
2022/09/27 01:58:32;;;;;;;0.40;0.40;;;;;;;;;;4151229;28;20077;-41
2022/09/27 02:00:35;;;;;;;0.32;0.30;;;;;;;;;;4148783;28;20107;-41
2022/09/27 02:02:40;;;;;;;0.30;0.30;;;;;;;;;;4164948;28;20053;-41
2022/09/27 02:04:59;;;;;;;0.30;0.30;;;;;;;;;;4164654;28;20061;-41
2022/09/27 02:07:09;;;;;;;1.02;0.50;;;;;;;;;;4147614;28;20057;-41
2022/09/27 02:09:13;;;;;;;1.50;0.40;;;;;;;;;;4163777;28;20112;-41
2022/09/27 02:11:26;;;;;;;1.13;0.50;;;;;;;;;;4164209;28;20065;-41
2022/09/27 02:13:51;;;;;;;0.30;0.30;;;;;;;;;;4163655;28;20054;-41
2022/09/27 02:16:38;;;;;;;0.50;0.30;;;;;;;;;;4163770;28;20060;-41
2022/09/27 02:18:52;;;;;;;0.55;0.40;;;;;;;;;;4163402;28;20064;-46
2022/09/27 02:20:56;;;;;;;0.30;0.20;;;;;;;;;;4163452;28;20053;-41
2022/09/27 02:23:24;;;;;;;0.32;0.30;;;;;;;;;;4114878;28;20086;-41
2022/09/27 02:25:54;;;;;;;0.25;0.25;;;;;;;;;;4163652;28;20480;-43
2022/09/27 02:28:28;;;;;;;0.40;0.30;;;;;;;;;;4147491;28;20049;-42
2022/09/27 02:30:29;;;;;;;0.25;0.25;;;;;;;;;;4140359;28;20054;-41
2022/09/27 02:32:37;;;;;;;0.55;0.50;;;;;;;;;;4163536;28;20057;-42
2022/09/27 02:34:40;;;;;;;0.35;0.20;;;;;;;;;;4147083;28;20065;-41
2022/09/27 02:36:41;;;;;;;0.40;0.30;;;;;;;;;;4163513;28;20096;-41
2022/09/27 02:38:43;;;;;;;0.20;0.20;;;;;;;;;;4163487;28;20124;-42
2022/09/27 02:40:46;;;;;;;0.50;0.40;;;;;;;;;;4138685;28;20069;-43
2022/09/27 02:42:48;;;;;;;0.30;0.30;;;;;;;;;;4131187;28;20065;-41
2022/09/27 02:44:49;;;;;;;0.22;0.22;;;;;;;;;;4148153;28;20050;-41
2022/09/27 02:47:15;;;;;;;0.25;0.25;;;;;;;;;;4147313;28;20124;-41
2022/09/27 02:49:41;;;;;;;0.32;0.30;;;;;;;;;;4147763;28;20387;-41
2022/09/27 02:52:00;;;;;;;0.30;0.30;;;;;;;;;;4146960;28;20572;-41
2022/09/27 02:54:14;;;;;;;;;;;;;;;;;;4147413;28;20050;-41
2022/09/27 02:57:11;;;;;;;0.30;0.30;;;;;;;;;;4148008;28;19971;-41
2022/09/27 02:59:33;;;;;;;0.68;0.45;;;;;;;;;;4148051;28;20509;-41
2022/09/27 03:02:11;;;;;;;0.40;0.30;;;;;;;;;;4146873;28;20433;-41
2022/09/27 03:04:37;;;;;;;0.30;0.22;;;;;;;;;;4090839;28;1186786;-42
2022/09/27 03:06:40;;;;;;;0.30;0.30;;;;;;;;;;4157649;28;20061;-42
2022/09/27 03:08:43;;;;;;;0.22;0.22;;;;;;;;;;4145313;28;20120;-40
2022/09/27 03:10:44;;;;;;;0.20;0.20;;;;;;;;;;4145713;28;20093;-42
2022/09/27 03:12:45;;;;;;;0.30;0.30;;;;;;;;;;4162231;28;20107;-42
2022/09/27 03:14:48;;;;;;;0.40;0.40;;;;;;;;;;4162036;28;20088;-42
2022/09/27 03:17:25;;;;;;;0.30;0.30;;;;;;;;;;4128343;28;20055;-41
2022/09/27 03:19:45;;;;;;;0.40;0.30;;;;;;;;;;4152481;28;20064;-41
2022/09/27 03:22:17;;;;;;;0.32;0.30;;;;;;;;;;4162012;28;20171;-41
2022/09/27 03:24:18;;;;;;;0.68;0.50;;;;;;;;;;4129662;28;20050;-41
2022/09/27 03:26:20;;;;;;;0.35;0.32;;;;;;;;;;4162458;28;20151;-44
2022/09/27 03:28:21;;;;;;;0.60;0.40;;;;;;;;;;4161811;28;20475;-42
2022/09/27 03:30:22;;;;;;;0.32;0.30;;;;;;;;;;4156542;28;20057;-42
2022/09/27 03:32:25;;;;;;;0.30;0.30;;;;;;;;;;4145456;28;20064;-41
2022/09/27 03:34:58;;;;;;;0.45;0.30;;;;;;;;;;4134215;28;20114;-41
2022/09/27 03:36:59;;;;;;;0.88;0.30;;;;;;;;;;4146738;28;20054;-42
2022/09/27 03:39:00;;;;;;;0.20;0.20;;;;;;;;;;4145235;28;20057;-41
2022/09/27 03:41:02;;;;;;;0.40;0.35;;;;;;;;;;4145397;28;20108;-41
2022/09/27 03:43:04;;;;;;;0.30;0.30;;;;;;;;;;4144902;28;20085;-41
2022/09/27 03:45:07;;;;;;;0.45;0.40;;;;;;;;;;4145535;28;20057;-41
2022/09/27 03:47:09;;;;;;;0.30;0.22;;;;;;;;;;4145601;28;20069;-41
2022/09/27 03:49:10;;;;;;;0.30;0.30;;;;;;;;;;4128518;28;20477;-41
2022/09/27 03:51:12;;;;;;;0.30;0.30;;;;;;;;;;4128725;28;20062;-42
2022/09/27 03:53:13;;;;;;;0.30;0.30;;;;;;;;;;4161567;28;20111;-41
2022/09/27 03:55:14;;;;;;;0.20;0.20;;;;;;;;;;4163890;28;20053;-41
2022/09/27 03:57:15;;;;;;;0.20;0.20;;;;;;;;;;4163082;28;20057;-41
2022/09/27 03:59:16;;;;;;;0.20;0.20;;;;;;;;;;4163258;28;20081;-42
2022/09/27 04:01:47;;;;;;;0.30;0.30;;;;;;;;;;4163897;28;20057;-42
2022/09/27 04:04:09;;;;;;;0.22;0.20;;;;;;;;;;4162379;28;20056;-41
2022/09/27 04:06:12;;;;;;;0.50;0.40;;;;;;;;;;4163073;28;20088;-42
2022/09/27 04:08:17;;;;;;;0.52;0.40;;;;;;;;;;4163139;28;20088;-41
2022/09/27 04:10:20;;;;;;;0.30;0.30;;;;;;;;;;4164194;28;20057;-42
2022/09/27 04:12:22;;;;;;;0.50;0.30;;;;;;;;;;4163011;28;20119;-40
2022/09/27 04:14:23;;;;;;;0.40;0.20;;;;;;;;;;4162148;28;20650;-41
2022/09/27 04:16:53;;;;;;;0.47;0.30;;;;;;;;;;4163991;28;20057;-40
2022/09/27 04:19:07;;;;;;;0.30;0.30;;;;;;;;;;4162477;28;20103;-41
2022/09/27 04:21:21;;;;;;;0.35;0.30;;;;;;;;;;4163008;28;20119;-41
2022/09/27 04:23:26;;;;;;;0.40;0.32;;;;;;;;;;4163086;28;20088;-42
2022/09/27 04:25:28;;;;;;;0.40;0.38;;;;;;;;;;4162784;28;20050;-41
2022/09/27 04:27:32;;;;;;;0.35;0.25;;;;;;;;;;4162966;28;20103;-41
2022/09/27 04:29:33;;;;;;;0.45;0.30;;;;;;;;;;4164364;28;20068;-41
2022/09/27 04:31:49;;;;;;;0.30;0.30;;;;;;;;;;4163093;28;20556;-41
2022/09/27 04:34:08;;;;;;;0.30;0.30;;;;;;;;;;4163910;28;20099;-41
2022/09/27 04:36:25;;;;;;;0.30;0.30;;;;;;;;;;4147107;28;20054;-41
2022/09/27 04:38:39;;;;;;;0.60;0.47;;;;;;;;;;4149563;28;20076;-41
2022/09/27 04:40:42;;;;;;;0.52;0.22;;;;;;;;;;4163114;28;20660;-41
2022/09/27 04:42:43;;;;;;;0.28;0.20;;;;;;;;;;4163271;28;20050;-41
2022/09/27 04:44:44;;;;;;;0.32;0.32;;;;;;;;;;4163932;28;20053;-42
2022/09/27 04:46:46;;;;;;;0.50;0.30;;;;;;;;;;4162883;28;20115;-42
2022/09/27 04:48:48;;;;;;;0.30;0.30;;;;;;;;;;4162615;28;20549;-42
2022/09/27 04:50:57;;;;;;;0.47;0.30;;;;;;;;;;4163018;28;20107;-41
2022/09/27 04:52:58;;;;;;;0.50;0.40;;;;;;;;;;4162842;28;20053;-41
2022/09/27 04:54:59;;;;;;;0.20;0.20;;;;;;;;;;4162851;28;20057;-41
2022/09/27 04:57:00;;;;;;;0.50;0.40;;;;;;;;;;4162547;28;20081;-41
2022/09/27 04:59:02;;;;;;;0.30;0.20;;;;;;;;;;4163674;28;20480;-41
2022/09/27 05:01:05;;;;;;;0.28;0.20;;;;;;;;;;4154815;28;20506;-41
2022/09/27 05:03:32;;;;;;;0.13;0.13;;;;;;;;;;4145196;28;20120;-43
2022/09/27 05:05:44;;;;;;;0.20;0.20;;;;;;;;;;4145556;28;20046;-41
2022/09/27 05:07:45;;;;;;;0.52;0.20;;;;;;;;;;4128223;28;20062;-41
2022/09/27 05:10:01;;;;;;;0.30;0.10;;;;;;;;;;4144734;28;20062;-45
2022/09/27 05:12:07;;;;;;;0.30;0.20;;;;;;;;;;4159737;28;20545;-42
2022/09/27 05:14:20;;;;;;;0.20;0.15;;;;;;;;;;4146108;28;20563;-41
2022/09/27 05:16:49;;;;;;;0.40;0.30;;;;;;;;;;4146140;28;20053;-41
2022/09/27 05:19:14;;;;;;;0.25;0.20;;;;;;;;;;4161770;28;20100;-41
2022/09/27 05:21:36;;;;;;;0.63;0.40;;;;;;;;;;4161281;28;20057;-41
2022/09/27 05:23:39;;;;;;;0.25;0.20;;;;;;;;;;4160784;28;20050;-41
2022/09/27 05:25:42;;;;;;;0.20;0.20;;;;;;;;;;4144396;28;20057;-41
2022/09/27 05:27:45;;;;;;;0.50;0.20;;;;;;;;;;4160810;28;20409;-41
2022/09/27 05:29:49;;;;;;;0.20;0.20;;;;;;;;;;4161829;28;20057;-42
2022/09/27 05:32:03;;;;;;;0.20;0.20;;;;;;;;;;4160616;28;20061;-41
2022/09/27 05:34:10;;;;;;;0.10;0.10;;;;;;;;;;4159818;28;20080;-41
2022/09/27 05:36:16;;;;;;;0.43;0.30;;;;;;;;;;4157954;28;20587;-41
2022/09/27 05:38:18;;;;;;;2.50;0.20;;;;;;;;;;4158922;28;20137;-41
2022/09/27 05:40:24;;;;;;;0.60;0.60;;;;;;;;;;4143153;28;20058;-41
2022/09/27 05:42:25;;;;;;;0.43;0.20;;;;;;;;;;4153930;28;20657;-41
2022/09/27 05:44:27;;;;;;;0.30;0.10;;;;;;;;;;4158932;28;20393;-42
2022/09/27 05:46:33;;;;;;;0.20;0.20;;;;;;;;;;4159930;28;20535;-41
2022/09/27 05:48:34;;;;;;;0.20;0.10;;;;;;;;;;4158911;28;20162;-42
2022/09/27 05:50:41;;;;;;;1.08;0.28;;;;;;;;;;4144225;28;20097;-41
2022/09/27 05:52:42;;;;;;;0.20;0.20;;;;;;;;;;4159739;28;20053;-43
2022/09/27 05:54:44;;;;;;;0.75;0.30;;;;;;;;;;4160017;28;20192;-41
2022/09/27 05:56:50;;;;;;;1.95;0.20;;;;;;;;;;4144188;28;20054;-41
2022/09/27 05:59:08;;;;;;;0.43;0.15;;;;;;;;;;4158506;28;20088;-41
2022/09/27 06:01:29;;;;;;;0.20;0.20;;;;;;;;;;4158367;28;20096;-41
2022/09/27 06:03:59;;;;;;;0.30;0.20;;;;;;;;;;4161399;28;20084;-42
2022/09/27 06:06:24;;;;;;;0.20;0.20;;;;;;;;;;4159050;28;20107;-41
2022/09/27 06:08:33;;;;;;;0.32;0.20;;;;;;;;;;4161835;28;20049;-41
2022/09/27 06:10:34;;;;;;;0.50;0.30;;;;;;;;;;4161264;28;20061;-42
2022/09/27 06:12:37;;;;;;;0.60;0.25;;;;;;;;;;4160646;28;20056;-42
2022/09/27 06:14:43;;;;;;;0.45;0.25;;;;;;;;;;4144666;28;20100;-42
2022/09/27 06:16:49;;;;;;;2.17;0.57;;;;;;;;;;4144516;28;20627;-41
2022/09/27 06:18:51;;;;;;;0.43;0.20;;;;;;;;;;4159392;28;20135;-42
2022/09/27 06:20:52;;;;;;;0.40;0.28;;;;;;;;;;4143405;28;20578;-42
2022/09/27 06:22:54;;;;;;;1.17;0.30;;;;;;;;;;4156235;28;20092;-42
2022/09/27 06:24:56;;;;;;;0.32;0.20;;;;;;;;;;4158548;28;20384;-43
2022/09/27 06:26:59;;;;;;;0.50;0.20;;;;;;;;;;4156371;28;20568;-42
2022/09/27 06:29:11;;;;;;;0.10;0.10;;;;;;;;;;4157834;28;20137;-42
2022/09/27 06:31:18;;;;;;;0.30;0.30;;;;;;;;;;4157787;28;20528;-42
2022/09/27 06:33:29;;;;;;;0.35;0.10;;;;;;;;;;4153460;28;20509;-42
2022/09/27 06:35:34;;;;;;;2.38;0.20;;;;;;;;;;4146848;28;20057;-41
2022/09/27 06:37:36;;;;;;;1.60;0.20;;;;;;;;;;4130496;28;20422;-42
2022/09/27 06:39:37;;;;;;;0.77;0.30;;;;;;;;;;4165120;28;20053;-42
2022/09/27 06:41:58;;;;;;;0.10;0.10;;;;;;;;;;4154277;28;20060;-41
2022/09/27 06:44:18;;;;;;;0.35;0.20;;;;;;;;;;4156804;28;20053;-42
2022/09/27 06:46:45;;;;;;;1.48;0.10;;;;;;;;;;4151146;28;20425;-42
2022/09/27 06:49:21;;;;;;;0.63;0.30;;;;;;;;;;4152371;28;20464;-42
2022/09/27 06:51:23;;;;;;;0.20;0.15;;;;;;;;;;4156475;28;20104;-40
2022/09/27 06:53:25;;;;;;;0.20;0.17;;;;;;;;;;4155041;28;20064;-43
2022/09/27 06:55:27;;;;;;;1.60;0.77;;;;;;;;;;4167825;28;20045;-41
2022/09/27 07:02:39;;;;;;;0.57;0.20;;;;;;;;;;4094935;28;20100;-42
2022/09/27 07:05:09;;;;;;;0.40;0.32;;;;;;;;;;4149991;28;20092;-43
2022/09/27 07:07:21;;;;;;;0.20;0.20;;;;;;;;;;4150109;28;20057;-42
2022/09/27 07:09:24;;;;;;;1.80;0.28;;;;;;;;;;4145475;28;20128;-41
2022/09/27 07:11:26;;;;;;;2.28;0.40;;;;;;;;;;4138365;28;20413;-41
2022/09/27 07:13:30;;;;;;;1.50;0.20;;;;;;;;;;4131741;28;20084;-41
2022/09/27 07:15:31;;;;;;;0.60;0.13;;;;;;;;;;4141527;28;20049;-42
2022/09/27 07:17:34;;;;;;;1.30;0.22;;;;;;;;;;4142460;28;20057;-43
2022/09/27 07:19:36;;;;;;;1.20;0.30;;;;;;;;;;4143358;28;20313;-43
2022/09/27 07:21:39;;;;;;;1.55;0.20;;;;;;;;;;4145320;28;20143;-42
2022/09/27 07:23:41;;;;;;;0.43;0.25;;;;;;;;;;4137332;28;20062;-42
2022/09/27 07:25:46;;;;;;;0.50;0.30;;;;;;;;;;4142662;28;20053;-41
2022/09/27 07:27:47;;;;;;;2.22;0.30;;;;;;;;;;4138100;28;20064;-41
2022/09/27 07:29:48;;;;;;;3.22;0.30;;;;;;;;;;4145198;28;20065;-41
2022/09/27 07:31:51;;;;;;;0.22;0.15;;;;;;;;;;4144899;28;20049;-42
2022/09/27 07:33:52;;;;;;;3.60;0.50;;;;;;;;;;4143872;28;20068;-41
2022/09/27 07:35:54;;;;;;;0.90;0.28;;;;;;;;;;4129553;28;20050;-41
2022/09/27 07:37:56;;;;;;;0.73;0.20;;;;;;;;;;4145022;28;20053;-45
2022/09/27 07:39:59;;;;;;;0.60;0.20;;;;;;;;;;4151577;28;20049;-41
2022/09/27 07:42:01;;;;;;;0.70;0.20;;;;;;;;;;4150734;28;20740;-41
2022/09/27 07:44:03;;;;;;;1.02;0.20;;;;;;;;;;4147130;28;20444;-41
2022/09/27 07:46:07;;;;;;;0.77;0.30;;;;;;;;;;4145380;28;20099;-41
2022/09/27 07:48:29;;;;;;;0.68;0.35;;;;;;;;;;4146090;28;20111;-44
2022/09/27 07:50:56;;;;;;;1.08;0.98;;;;;;;;;;4135706;28;20064;-42
2022/09/27 07:53:36;;;;;;;;;;;;;;;;;;4128700;28;20076;-42
2022/09/27 07:56:00;;;;;;;0.70;0.28;;;;;;;;;;4132285;28;19988;-43
2022/09/27 07:58:06;;;;;;;1.98;0.30;;;;;;;;;;4128642;28;20131;-43
2022/09/27 08:00:11;;;;;;;0.43;0.20;;;;;;;;;;4143461;28;20377;-45
2022/09/27 08:02:16;;;;;;;0.38;0.20;;;;;;;;;;4137534;28;20115;-41
2022/09/27 08:04:18;;;;;;;0.57;0.20;;;;;;;;;;4143941;28;20437;-42
2022/09/27 08:06:19;;;;;;;0.40;0.30;;;;;;;;;;4166308;28;20056;-41
2022/09/27 08:08:21;;;;;;;0.93;0.17;;;;;;;;;;4144573;28;20115;-42
2022/09/27 08:10:30;;;;;;;0.45;0.30;;;;;;;;;;4145547;28;20061;-43
2022/09/27 08:12:32;;;;;;;2.22;0.40;;;;;;;;;;4146805;28;20540;-43
2022/09/27 08:14:34;;;;;;;0.60;0.20;;;;;;;;;;4141300;28;20715;-44
2022/09/27 08:16:35;;;;;;;0.15;0.15;;;;;;;;;;4131243;28;20334;-43
2022/09/27 08:19:09;;;;;;;0.47;0.20;;;;;;;;;;4147632;28;20484;-43
2022/09/27 08:21:19;;;;;;;0.57;0.30;;;;;;;;;;4147829;28;21305;-43
2022/09/27 08:23:41;;;;;;;0.30;0.17;;;;;;;;;;4140661;28;20108;-43
2022/09/27 08:26:05;;;;;;;0.20;0.20;;;;;;;;;;4148023;28;20061;-43
2022/09/27 08:28:17;;;;;;;1.55;0.30;;;;;;;;;;4150409;28;20424;-42
2022/09/27 08:30:30;;;;;;;0.50;0.40;;;;;;;;;;4140548;28;20061;-43
2022/09/27 08:32:31;;;;;;;2.63;0.50;;;;;;;;;;4122678;28;20120;-43
2022/09/27 08:34:35;;;;;;;0.30;0.22;;;;;;;;;;4141195;28;20049;-44
2022/09/27 08:36:37;;;;;;;0.10;0.10;;;;;;;;;;4145776;28;20480;-43
2022/09/27 08:38:38;;;;;;;0.20;0.20;;;;;;;;;;4146879;28;20554;-43
2022/09/27 08:40:48;;;;;;;0.50;0.20;;;;;;;;;;4148637;28;20088;-43
2022/09/27 08:42:53;;;;;;;;;;;;;;;;;;4151954;28;21835;-42
2022/09/27 08:45:07;;;;;;;1.10;0.20;;;;;;;;;;4133407;28;19991;-43
2022/09/27 08:47:30;;;;;;;1.15;0.40;;;;;;;;;;4139442;28;20061;-43
2022/09/27 08:49:44;;;;;;;0.65;0.20;;;;;;;;;;4141400;28;20334;-40
2022/09/27 08:51:48;;;;;;;0.60;0.30;;;;;;;;;;4147495;28;20065;-43
2022/09/27 08:53:52;;;;;;;0.35;0.20;;;;;;;;;;4125716;28;20053;-43
2022/09/27 08:56:13;;;;;;;0.50;0.20;;;;;;;;;;4145530;28;20537;-41
2022/09/27 08:58:31;;;;;;;5.53;0.50;;;;;;;;;;4119074;28;20525;-42
2022/09/27 09:00:33;;;;;;;2.45;0.28;;;;;;;;;;4128697;28;20136;-41
2022/09/27 09:02:35;;;;;;;1.20;0.30;;;;;;;;;;4140697;28;20058;-41
2022/09/27 09:04:39;;;;;;;0.43;0.28;;;;;;;;;;4141027;28;20288;-42
2022/09/27 09:07:01;;;;;;;0.52;0.52;;;;;;;;;;4140439;28;20061;-42
2022/09/27 09:09:17;;;;;;;0.50;0.30;;;;;;;;;;4130625;28;20053;-41
2022/09/27 09:14:26;;;;;;;8.02;0.63;;;;;;;;;;4150857;28;20180;-40
2022/09/27 09:16:43;;;;;;;;;;;;;;;;;;4131579;28;21004;-41
2022/09/27 09:18:45;;;;;;;1.23;0.60;;;;;;;;;;4130930;28;20180;-42
2022/09/27 09:21:26;;;;;;;0.57;0.30;;;;;;;;;;4142690;28;20062;-42
2022/09/27 09:23:38;;;;;;;0.40;0.38;;;;;;;;;;4154210;28;20057;-41
2022/09/27 09:25:57;;;;;;;1.25;0.45;;;;;;;;;;4143648;28;20062;-42
2022/09/27 09:28:27;;;;;;;1.08;0.52;;;;;;;;;;4148995;28;20646;-41
2022/09/27 09:30:38;;;;;;;;;;;;;;;;;;4141651;28;20108;-42
2022/09/27 09:32:58;;;;;;;0.80;0.30;;;;;;;;;;4149395;28;19928;-41
2022/09/27 09:35:03;;;;;;;1.13;0.40;;;;;;;;;;4143862;28;20116;-41
2022/09/27 09:37:14;;;;;;;0.52;0.43;;;;;;;;;;4146831;28;20127;-42
2022/09/27 09:39:19;;;;;;;0.50;0.40;;;;;;;;;;4143034;28;20053;-42
2022/09/27 09:41:28;;;;;;;1.02;0.50;;;;;;;;;;4165835;28;20707;-42
2022/09/27 09:43:50;;;;;;;2.47;0.60;;;;;;;;;;4146276;28;20065;-44
2022/09/27 09:46:01;;;;;;;2.90;0.70;;;;;;;;;;4143013;28;20477;-41
2022/09/27 09:48:05;;;;;;;1.55;0.55;;;;;;;;;;4149108;28;20092;-42
2022/09/27 09:50:21;;;;;;;0.32;0.30;;;;;;;;;;4145416;28;20195;-51
2022/09/27 09:52:26;;;;;;;1.20;0.70;;;;;;;;;;4142681;28;20076;-47
2022/09/27 09:54:41;;;;;;;0.65;0.65;;;;;;;;;;4145820;28;20444;-50
2022/09/27 09:57:09;;;;;;;0.80;0.65;;;;;;;;;;4138946;28;20358;-47
2022/09/27 09:59:30;;;;;;;0.55;0.43;;;;;;;;;;4140099;28;21897;-44
2022/09/27 10:01:34;;;;;;;0.70;0.70;;;;;;;;;;4140349;28;20104;-50
2022/09/27 10:03:36;;;;;;;1.20;0.60;;;;;;;;;;4148621;28;20057;-46
2022/09/27 10:05:37;;;;;;;1.75;0.60;;;;;;;;;;4139959;28;20050;-50
2022/09/27 10:07:43;;;;;;;0.70;0.70;;;;;;;;;;4156605;28;20057;-44
2022/09/27 10:09:45;;;;;;;1.58;0.98;;;;;;;;;;4142489;28;20418;-48
2022/09/27 10:12:05;;;;;;;0.82;0.57;;;;;;;;;;4143265;28;20061;-44
2022/09/27 10:14:11;;;;;;;1.50;1.00;;;;;;;;;;4131669;28;20116;-46
2022/09/27 10:16:15;;;;;;;0.70;0.60;;;;;;;;;;4126902;28;20419;-45
2022/09/27 10:18:18;;;;;;;2.03;0.50;;;;;;;;;;4129534;28;20122;-48
2022/09/27 10:20:30;;;;;;;1.45;0.77;;;;;;;;;;4150354;28;20050;-49
2022/09/27 10:22:38;;;;;;;1.83;0.70;;;;;;;;;;4148157;28;20071;-45
2022/09/27 10:24:55;;;;;;;1.48;0.98;;;;;;;;;;4131580;28;20078;-46
2022/09/27 10:27:15;;;;;;;0.65;0.65;;;;;;;;;;4143201;28;20144;-48
2022/09/27 10:29:19;;;;;;;1.95;0.90;;;;;;;;;;4147040;28;20556;-48
2022/09/27 10:31:22;;;;;;;0.70;0.65;;;;;;;;;;4133877;28;20575;-47
2022/09/27 10:34:00;;;;;;;1.25;0.80;;;;;;;;;;4144926;28;20080;-46
2022/09/27 10:36:03;;;;;;;1.00;0.90;;;;;;;;;;4148918;28;20077;-51
2022/09/27 10:38:25;;;;;;;0.80;0.70;;;;;;;;;;4131579;28;20510;-46
2022/09/27 10:40:32;;;;;;;1.00;0.88;;;;;;;;;;4162476;28;20849;-45
2022/09/27 10:42:37;;;;;;;0.75;0.68;;;;;;;;;;4149768;28;20064;-52
2022/09/27 10:44:40;;;;;;;0.57;0.55;;;;;;;;;;4146656;28;20099;-48
2022/09/27 10:47:09;;;;;;;1.35;1.05;;;;;;;;;;4143694;28;20103;-47
2022/09/27 10:49:29;;;;;;;1.00;0.85;;;;;;;;;;4126167;28;20065;-50
2022/09/27 10:51:32;;;;;;;2.55;0.70;;;;;;;;;;4126379;28;20049;-47
2022/09/27 10:53:35;;;;;;;0.93;0.70;;;;;;;;;;4145794;28;20068;-46
2022/09/27 10:55:46;;;;;;;1.90;0.65;;;;;;;;;;4145400;28;20139;-51
2022/09/27 10:57:49;;;;;;;1.10;0.90;;;;;;;;;;4138269;28;20063;-47
2022/09/27 10:59:59;;;;;;;1.08;0.95;;;;;;;;;;4125591;28;20208;-44
2022/09/27 11:02:01;;;;;;;2.55;1.05;;;;;;;;;;4137986;28;20123;-48
2022/09/27 11:04:23;;;;;;;0.88;0.80;;;;;;;;;;4144818;28;20145;-51
2022/09/27 11:06:24;;;;;;;1.10;1.00;;;;;;;;;;4144835;28;20085;-49
2022/09/27 11:08:31;;;;;;;1.30;0.90;;;;;;;;;;4147426;28;20057;-44
2022/09/27 11:10:37;;;;;;;1.27;1.10;;;;;;;;;;4151141;28;20190;-51
2022/09/27 11:12:40;;;;;;;1.05;0.93;;;;;;;;;;4137168;28;20068;-51
2022/09/27 11:14:50;;;;;;;1.58;0.82;;;;;;;;;;4152258;28;20084;-48
2022/09/27 11:16:59;;;;;;;1.00;0.90;;;;;;;;;;4152852;28;20505;-53
2022/09/27 11:19:07;;;;;;;1.25;1.00;;;;;;;;;;4150253;28;20361;-53
2022/09/27 11:21:44;;;;;;;1.30;1.20;;;;;;;;;;4143710;28;20504;-55
2022/09/27 11:24:00;;;;;;;1.23;1.02;;;;;;;;;;4127123;28;20053;-49
2022/09/27 11:26:13;;;;;;;2.17;1.20;;;;;;;;;;4145550;28;20053;-53
2022/09/27 11:28:27;;;;;;;1.27;0.90;;;;;;;;;;4141062;28;20880;-52
2022/09/27 11:30:35;;;;;;;1.10;1.00;;;;;;;;;;4142813;28;20061;-51
2022/09/27 11:33:13;;;;;;;1.42;1.30;;;;;;;;;;4143321;28;20155;-49
2022/09/27 11:35:20;;;;;;;;;;;;;;;;;;4139343;28;20411;-49
2022/09/27 11:37:33;;;;;;;2.67;1.38;;;;;;;;;;4144948;28;20353;-49
2022/09/27 11:40:12;;;;;;;2.95;1.75;;;;;;;;;;4138350;28;20053;-45
2022/09/27 11:42:16;;;;;;;2.10;1.55;;;;;;;;;;4130249;28;20536;-47
2022/09/27 11:44:43;;;;;;;2.13;1.45;;;;;;;;;;4149261;28;20057;-47
2022/09/27 11:46:55;;;;;;;1.40;1.30;;;;;;;;;;4155020;28;20526;-51
2022/09/27 11:49:10;;;;;;;1.92;1.55;;;;;;;;;;4144113;28;20064;-48
2022/09/27 11:51:50;;;;;;;1.48;1.38;;;;;;;;;;4158875;28;20784;-43
2022/09/27 11:54:15;;;;;;;1.83;1.38;;;;;;;;;;4143371;28;20057;-46
2022/09/27 11:56:39;;;;;;;3.40;1.70;;;;;;;;;;4130797;28;20100;-48
2022/09/27 11:58:59;;;;;;;1.80;1.70;;;;;;;;;;4121585;28;20151;-44
2022/09/27 12:01:03;;;;;;;1.65;1.55;;;;;;;;;;4126504;28;20053;-48
2022/09/27 12:03:10;;;;;;;2.28;2.05;;;;;;;;;;4140248;28;20058;-50
2022/09/27 12:05:30;;;;;;;1.70;1.60;;;;;;;;;;4139697;28;20088;-49
2022/09/27 12:07:41;;;;;;;2.55;1.95;;;;;;;;;;4143277;28;20418;-45
2022/09/27 12:09:47;;;;;;;2.35;1.83;;;;;;;;;;4143333;28;20087;-47
2022/09/27 12:11:53;;;;;;;4.00;2.10;;;;;;;;;;4125341;28;20073;-51
2022/09/27 12:14:02;;;;;;;2.45;2.00;;;;;;;;;;4145382;28;20167;-49
2022/09/27 12:16:04;;;;;;;1.80;1.70;;;;;;;;;;4128584;28;20069;-50
2022/09/27 12:18:28;;;;;;;2.42;1.92;;;;;;;;;;4150347;28;20152;-49
2022/09/27 12:20:30;;;;;;;;;;;;;;;;;;4145617;28;20064;-46
2022/09/27 12:22:48;;;;;;;1.83;1.73;;;;;;;;;;4141289;28;20004;-42
2022/09/27 12:24:49;;;;;;;2.20;2.00;;;;;;;;;;4139904;28;20192;-52
2022/09/27 12:27:15;;;;;;;2.38;1.92;;;;;;;;;;4126636;28;20053;-52
2022/09/27 12:29:31;;;;;;;;;;;;;;;;;;4133122;28;20531;-50
2022/09/27 12:31:36;;;;;;;2.42;2.10;;;;;;;;;;4106595;28;20811;-44
2022/09/27 12:33:43;;;;;;;2.53;2.10;;;;;;;;;;4127388;28;20171;-43
2022/09/27 12:35:51;;;;;;;2.60;2.17;;;;;;;;;;4110561;28;20058;-49
2022/09/27 12:38:09;;;;;;;2.38;2.08;;;;;;;;;;4120695;28;20097;-48
2022/09/27 12:40:18;;;;;;;2.55;2.03;;;;;;;;;;4112344;28;20101;-53
2022/09/27 12:42:30;;;;;;;2.70;2.13;;;;;;;;;;4145714;28;20061;-50
2022/09/27 12:44:39;;;;;;;3.38;2.33;;;;;;;;;;4147808;28;20243;-47
2022/09/27 12:47:11;;;;;;;2.08;1.80;;;;;;;;;;4143392;28;20127;-50
2022/09/27 12:49:24;;;;;;;3.38;2.20;;;;;;;;;;4140189;28;20054;-50
2022/09/27 12:51:33;;;;;;;3.95;1.90;;;;;;;;;;4129438;28;20061;-46
2022/09/27 12:54:12;;;;;;;3.25;2.38;;;;;;;;;;4143164;28;20128;-49
2022/09/27 12:57:05;;;;;;;3.15;2.10;;;;;;;;;;4144402;28;20057;-47
2022/09/27 12:59:11;;;;;;;2.35;2.15;;;;;;;;;;4140309;28;20135;-50
2022/09/27 13:01:38;;;;;;;2.47;2.28;;;;;;;;;;4124694;28;20062;-47
2022/09/27 13:03:55;;;;;;;2.60;2.38;;;;;;;;;;4142057;28;20399;-50
2022/09/27 13:06:12;;;;;;;2.50;2.30;;;;;;;;;;4145785;28;20069;-48
2022/09/27 13:08:25;;;;;;;2.67;2.45;;;;;;;;;;4144410;28;20061;-50
2022/09/27 13:10:35;;;;;;;3.15;2.22;;;;;;;;;;4148574;28;20127;-50
2022/09/27 13:12:52;;;;;;;2.85;2.25;;;;;;;;;;4149141;28;20053;-48